sensor_id;sensor_type;location;lat;lon;timestamp;P1;P2;P0
61873;PMS5003;49692;55.052;73.310;2022-09-25T00:01:23;44.75;37.25;27.75
61873;PMS5003;49692;55.052;73.310;2022-09-25T00:03:51;38.25;37.75;18.50
61873;PMS5003;49692;55.052;73.310;2022-09-25T00:06:19;44.25;41.75;22.50
61873;PMS5003;49692;55.052;73.310;2022-09-25T00:08:47;43.25;34.25;22.50
61873;PMS5003;49692;55.052;73.310;2022-09-25T00:11:18;46.25;38.50;22.50
61873;PMS5003;49692;55.052;73.310;2022-09-25T00:13:52;35.00;30.75;18.00
61873;PMS5003;49692;55.052;73.310;2022-09-25T00:16:21;52.00;42.25;29.00
61873;PMS5003;49692;55.052;73.310;2022-09-25T00:18:49;35.00;31.75;23.00
61873;PMS5003;49692;55.052;73.310;2022-09-25T00:21:39;44.50;39.00;27.50
61873;PMS5003;49692;55.052;73.310;2022-09-25T00:24:06;47.00;38.00;26.00
61873;PMS5003;49692;55.052;73.310;2022-09-25T00:26:40;40.25;38.75;26.50
61873;PMS5003;49692;55.052;73.310;2022-09-25T00:29:08;47.00;38.75;25.00
61873;PMS5003;49692;55.052;73.310;2022-09-25T00:31:44;46.25;44.00;26.00
61873;PMS5003;49692;55.052;73.310;2022-09-25T00:34:11;50.25;43.25;27.75
61873;PMS5003;49692;55.052;73.310;2022-09-25T00:36:39;38.00;34.50;27.00
61873;PMS5003;49692;55.052;73.310;2022-09-25T00:39:11;33.25;30.00;20.00
61873;PMS5003;49692;55.052;73.310;2022-09-25T00:41:38;45.50;32.75;18.25
61873;PMS5003;49692;55.052;73.310;2022-09-25T00:44:39;39.50;34.00;21.25
61873;PMS5003;49692;55.052;73.310;2022-09-25T00:47:09;40.75;30.75;16.50
61873;PMS5003;49692;55.052;73.310;2022-09-25T00:49:41;38.75;29.75;22.00
61873;PMS5003;49692;55.052;73.310;2022-09-25T00:52:10;42.25;36.00;23.50
61873;PMS5003;49692;55.052;73.310;2022-09-25T00:54:40;41.25;39.00;27.00
61873;PMS5003;49692;55.052;73.310;2022-09-25T00:57:14;44.75;41.00;26.25
61873;PMS5003;49692;55.052;73.310;2022-09-25T01:00:00;38.75;34.50;24.00
61873;PMS5003;49692;55.052;73.310;2022-09-25T01:02:38;37.75;35.50;23.00
61873;PMS5003;49692;55.052;73.310;2022-09-25T01:05:10;43.00;39.75;25.50
61873;PMS5003;49692;55.052;73.310;2022-09-25T01:07:42;43.25;39.00;28.50
61873;PMS5003;49692;55.052;73.310;2022-09-25T01:10:12;44.00;40.50;25.00
61873;PMS5003;49692;55.052;73.310;2022-09-25T01:12:41;41.75;39.50;26.00
61873;PMS5003;49692;55.052;73.310;2022-09-25T01:15:11;45.75;41.50;25.25
61873;PMS5003;49692;55.052;73.310;2022-09-25T01:23:15;40.75;36.50;21.50
61873;PMS5003;49692;55.052;73.310;2022-09-25T01:29:00;46.00;36.50;25.00
61873;PMS5003;49692;55.052;73.310;2022-09-25T01:35:06;41.25;37.00;27.00
61873;PMS5003;49692;55.052;73.310;2022-09-25T01:40:24;43.00;32.25;24.75
61873;PMS5003;49692;55.052;73.310;2022-09-25T01:43:12;46.00;40.50;24.25
61873;PMS5003;49692;55.052;73.310;2022-09-25T01:46:01;48.00;39.50;25.00
61873;PMS5003;49692;55.052;73.310;2022-09-25T01:48:36;47.50;42.50;26.50
61873;PMS5003;49692;55.052;73.310;2022-09-25T01:51:07;44.25;36.25;25.00
61873;PMS5003;49692;55.052;73.310;2022-09-25T01:53:46;44.00;37.50;24.75
61873;PMS5003;49692;55.052;73.310;2022-09-25T01:56:23;45.00;35.75;24.00
61873;PMS5003;49692;55.052;73.310;2022-09-25T01:59:07;45.25;42.25;30.00
61873;PMS5003;49692;55.052;73.310;2022-09-25T02:02:09;41.50;39.25;27.50
61873;PMS5003;49692;55.052;73.310;2022-09-25T02:04:43;59.25;48.00;26.00
61873;PMS5003;49692;55.052;73.310;2022-09-25T02:07:15;54.25;46.50;28.25
61873;PMS5003;49692;55.052;73.310;2022-09-25T02:09:57;38.50;31.50;20.25
61873;PMS5003;49692;55.052;73.310;2022-09-25T02:12:36;65.00;47.50;31.50
61873;PMS5003;49692;55.052;73.310;2022-09-25T02:15:13;50.75;41.00;27.50
61873;PMS5003;49692;55.052;73.310;2022-09-25T02:17:47;45.50;39.00;27.50
61873;PMS5003;49692;55.052;73.310;2022-09-25T02:20:39;50.25;39.50;24.50
61873;PMS5003;49692;55.052;73.310;2022-09-25T02:23:22;28.50;18.50;18.25
61873;PMS5003;49692;55.052;73.310;2022-09-25T02:28:30;44.50;38.50;23.75
61873;PMS5003;49692;55.052;73.310;2022-09-25T02:31:01;36.75;34.50;21.00
61873;PMS5003;49692;55.052;73.310;2022-09-25T02:33:32;34.50;28.75;21.00
61873;PMS5003;49692;55.052;73.310;2022-09-25T02:36:00;32.00;30.75;21.50
61873;PMS5003;49692;55.052;73.310;2022-09-25T02:38:41;42.50;33.75;22.00
61873;PMS5003;49692;55.052;73.310;2022-09-25T02:44:14;32.50;25.00;18.25
61873;PMS5003;49692;55.052;73.310;2022-09-25T02:50:31;32.50;31.00;22.50
61873;PMS5003;49692;55.052;73.310;2022-09-25T02:53:20;28.00;26.00;19.50
61873;PMS5003;49692;55.052;73.310;2022-09-25T02:56:03;35.00;31.50;22.50
61873;PMS5003;49692;55.052;73.310;2022-09-25T02:58:52;32.50;29.00;17.25
61873;PMS5003;49692;55.052;73.310;2022-09-25T03:01:23;29.50;27.50;14.00
61873;PMS5003;49692;55.052;73.310;2022-09-25T03:03:54;29.75;29.75;22.00
61873;PMS5003;49692;55.052;73.310;2022-09-25T03:06:28;26.50;23.00;12.75
61873;PMS5003;49692;55.052;73.310;2022-09-25T03:08:59;36.00;32.50;21.00
61873;PMS5003;49692;55.052;73.310;2022-09-25T03:11:36;50.00;48.00;30.00
61873;PMS5003;49692;55.052;73.310;2022-09-25T03:14:11;53.25;45.25;28.00
61873;PMS5003;49692;55.052;73.310;2022-09-25T03:19:11;60.75;49.25;34.25
61873;PMS5003;49692;55.052;73.310;2022-09-25T03:21:38;41.00;37.50;27.75
61873;PMS5003;49692;55.052;73.310;2022-09-25T03:24:05;48.00;44.00;29.00
61873;PMS5003;49692;55.052;73.310;2022-09-25T03:26:37;57.50;45.00;26.00
61873;PMS5003;49692;55.052;73.310;2022-09-25T03:29:05;43.75;39.25;26.00
61873;PMS5003;49692;55.052;73.310;2022-09-25T03:31:32;59.00;46.25;29.25
61873;PMS5003;49692;55.052;73.310;2022-09-25T03:33:59;44.50;44.00;28.50
61873;PMS5003;49692;55.052;73.310;2022-09-25T03:36:27;49.25;45.50;30.00
61873;PMS5003;49692;55.052;73.310;2022-09-25T03:38:56;57.25;47.50;30.25
61873;PMS5003;49692;55.052;73.310;2022-09-25T03:41:28;65.75;53.00;33.00
61873;PMS5003;49692;55.052;73.310;2022-09-25T03:44:01;62.50;49.75;33.00
61873;PMS5003;49692;55.052;73.310;2022-09-25T03:46:29;70.50;52.00;34.50
61873;PMS5003;49692;55.052;73.310;2022-09-25T03:48:58;61.25;50.00;32.00
61873;PMS5003;49692;55.052;73.310;2022-09-25T03:51:30;69.50;51.75;33.25
61873;PMS5003;49692;55.052;73.310;2022-09-25T03:53:57;60.50;49.50;31.00
61873;PMS5003;49692;55.052;73.310;2022-09-25T03:56:24;58.00;49.00;30.25
61873;PMS5003;49692;55.052;73.310;2022-09-25T03:58:53;64.00;51.75;33.00
61873;PMS5003;49692;55.052;73.310;2022-09-25T04:01:21;65.50;54.00;35.25
61873;PMS5003;49692;55.052;73.310;2022-09-25T04:03:50;69.50;55.00;34.00
61873;PMS5003;49692;55.052;73.310;2022-09-25T04:06:20;64.00;54.00;34.00
61873;PMS5003;49692;55.052;73.310;2022-09-25T04:08:50;52.75;45.00;29.00
61873;PMS5003;49692;55.052;73.310;2022-09-25T04:11:21;68.25;51.75;33.00
61873;PMS5003;49692;55.052;73.310;2022-09-25T04:13:49;58.75;49.00;33.00
61873;PMS5003;49692;55.052;73.310;2022-09-25T04:16:17;65.25;50.00;31.50
61873;PMS5003;49692;55.052;73.310;2022-09-25T04:18:46;48.25;39.75;24.75
61873;PMS5003;49692;55.052;73.310;2022-09-25T04:21:16;51.00;44.50;25.00
61873;PMS5003;49692;55.052;73.310;2022-09-25T04:23:43;43.00;39.25;26.00
61873;PMS5003;49692;55.052;73.310;2022-09-25T04:26:30;54.50;48.50;33.75
61873;PMS5003;49692;55.052;73.310;2022-09-25T04:28:59;37.00;36.75;25.00
61873;PMS5003;49692;55.052;73.310;2022-09-25T04:31:32;54.50;41.25;25.00
61873;PMS5003;49692;55.052;73.310;2022-09-25T04:34:16;51.75;44.75;30.00
61873;PMS5003;49692;55.052;73.310;2022-09-25T04:36:43;39.25;37.50;25.00
61873;PMS5003;49692;55.052;73.310;2022-09-25T04:39:12;51.75;40.50;26.50
61873;PMS5003;49692;55.052;73.310;2022-09-25T04:41:47;41.00;39.50;26.00
61873;PMS5003;49692;55.052;73.310;2022-09-25T04:44:17;41.75;30.25;18.75
61873;PMS5003;49692;55.052;73.310;2022-09-25T04:46:45;37.00;35.75;23.00
61873;PMS5003;49692;55.052;73.310;2022-09-25T04:49:14;42.50;34.75;22.00
61873;PMS5003;49692;55.052;73.310;2022-09-25T04:51:42;41.50;36.50;24.75
61873;PMS5003;49692;55.052;73.310;2022-09-25T04:54:13;41.00;35.50;23.25
61873;PMS5003;49692;55.052;73.310;2022-09-25T04:56:44;32.50;31.00;20.00
61873;PMS5003;49692;55.052;73.310;2022-09-25T04:59:11;32.50;32.00;22.00
61873;PMS5003;49692;55.052;73.310;2022-09-25T05:01:37;37.75;34.75;21.25
61873;PMS5003;49692;55.052;73.310;2022-09-25T05:04:04;41.50;36.50;24.00
61873;PMS5003;49692;55.052;73.310;2022-09-25T05:06:31;35.25;30.00;21.00
61873;PMS5003;49692;55.052;73.310;2022-09-25T05:08:58;43.75;37.00;24.00
61873;PMS5003;49692;55.052;73.310;2022-09-25T05:11:25;35.50;30.75;20.25
61873;PMS5003;49692;55.052;73.310;2022-09-25T05:13:58;39.75;32.50;21.00
61873;PMS5003;49692;55.052;73.310;2022-09-25T05:16:29;39.25;36.75;23.00
61873;PMS5003;49692;55.052;73.310;2022-09-25T05:19:06;37.50;30.25;17.50
61873;PMS5003;49692;55.052;73.310;2022-09-25T05:21:35;29.25;25.00;18.50
61873;PMS5003;49692;55.052;73.310;2022-09-25T05:24:08;33.00;30.25;16.00
61873;PMS5003;49692;55.052;73.310;2022-09-25T05:26:40;30.75;28.75;20.75
61873;PMS5003;49692;55.052;73.310;2022-09-25T05:29:17;35.75;30.25;21.25
61873;PMS5003;49692;55.052;73.310;2022-09-25T05:31:48;36.25;31.50;20.75
61873;PMS5003;49692;55.052;73.310;2022-09-25T05:34:26;38.00;35.25;23.50
61873;PMS5003;49692;55.052;73.310;2022-09-25T05:36:54;29.50;29.00;23.00
61873;PMS5003;49692;55.052;73.310;2022-09-25T05:39:25;28.00;26.75;18.75
61873;PMS5003;49692;55.052;73.310;2022-09-25T05:41:58;36.50;34.50;21.00
61873;PMS5003;49692;55.052;73.310;2022-09-25T05:44:24;39.00;31.50;22.00
61873;PMS5003;49692;55.052;73.310;2022-09-25T05:47:00;104.00;76.50;43.75
61873;PMS5003;49692;55.052;73.310;2022-09-25T05:49:29;32.50;28.00;19.00
61873;PMS5003;49692;55.052;73.310;2022-09-25T05:52:03;38.00;29.00;19.75
61873;PMS5003;49692;55.052;73.310;2022-09-25T05:54:42;27.00;21.75;15.25
61873;PMS5003;49692;55.052;73.310;2022-09-25T05:57:18;19.25;18.00;12.75
61873;PMS5003;49692;55.052;73.310;2022-09-25T05:59:45;27.00;24.25;17.75
61873;PMS5003;49692;55.052;73.310;2022-09-25T06:02:14;24.00;22.50;16.00
61873;PMS5003;49692;55.052;73.310;2022-09-25T06:04:41;24.00;20.00;15.50
61873;PMS5003;49692;55.052;73.310;2022-09-25T06:07:08;33.75;33.00;23.00
61873;PMS5003;49692;55.052;73.310;2022-09-25T06:09:35;33.50;29.75;20.00
61873;PMS5003;49692;55.052;73.310;2022-09-25T06:12:02;31.75;28.25;17.75
61873;PMS5003;49692;55.052;73.310;2022-09-25T06:14:45;29.75;24.75;17.75
61873;PMS5003;49692;55.052;73.310;2022-09-25T06:17:11;30.50;27.50;19.00
61873;PMS5003;49692;55.052;73.310;2022-09-25T06:19:40;26.25;24.25;17.75
61873;PMS5003;49692;55.052;73.310;2022-09-25T06:22:12;30.50;24.75;15.25
61873;PMS5003;49692;55.052;73.310;2022-09-25T06:24:39;26.00;22.00;16.00
61873;PMS5003;49692;55.052;73.310;2022-09-25T06:27:07;17.25;13.25;10.50
61873;PMS5003;49692;55.052;73.310;2022-09-25T06:29:37;36.00;28.25;19.00
61873;PMS5003;49692;55.052;73.310;2022-09-25T06:32:07;33.00;28.25;20.00
61873;PMS5003;49692;55.052;73.310;2022-09-25T06:34:37;33.00;25.00;16.50
61873;PMS5003;49692;55.052;73.310;2022-09-25T06:37:04;26.00;23.00;16.00
61873;PMS5003;49692;55.052;73.310;2022-09-25T06:39:31;29.75;26.75;17.50
61873;PMS5003;49692;55.052;73.310;2022-09-25T06:42:08;18.00;18.00;11.00
61873;PMS5003;49692;55.052;73.310;2022-09-25T06:44:35;26.25;24.50;13.25
61873;PMS5003;49692;55.052;73.310;2022-09-25T06:47:02;17.00;13.25;11.25
61873;PMS5003;49692;55.052;73.310;2022-09-25T06:49:36;20.00;19.50;14.25
61873;PMS5003;49692;55.052;73.310;2022-09-25T06:52:05;21.50;18.00;11.50
61873;PMS5003;49692;55.052;73.310;2022-09-25T06:54:42;25.25;20.00;11.50
61873;PMS5003;49692;55.052;73.310;2022-09-25T06:57:09;23.75;20.75;13.00
61873;PMS5003;49692;55.052;73.310;2022-09-25T06:59:47;23.25;21.50;13.50
61873;PMS5003;49692;55.052;73.310;2022-09-25T07:02:17;22.25;18.75;12.00
61873;PMS5003;49692;55.052;73.310;2022-09-25T07:05:02;22.50;21.75;14.25
61873;PMS5003;49692;55.052;73.310;2022-09-25T07:07:30;17.00;14.50;9.25
61873;PMS5003;49692;55.052;73.310;2022-09-25T07:09:58;24.75;17.00;13.75
61873;PMS5003;49692;55.052;73.310;2022-09-25T07:12:26;19.25;18.00;13.50
61873;PMS5003;49692;55.052;73.310;2022-09-25T07:14:52;20.00;15.00;12.00
61873;PMS5003;49692;55.052;73.310;2022-09-25T07:17:20;26.00;19.00;13.50
61873;PMS5003;49692;55.052;73.310;2022-09-25T07:19:56;21.50;16.50;12.75
61873;PMS5003;49692;55.052;73.310;2022-09-25T07:22:25;18.75;18.25;12.50
61873;PMS5003;49692;55.052;73.310;2022-09-25T07:25:01;21.50;19.75;15.00
61873;PMS5003;49692;55.052;73.310;2022-09-25T07:27:39;20.00;19.00;13.75
61873;PMS5003;49692;55.052;73.310;2022-09-25T07:30:14;20.75;20.00;14.00
61873;PMS5003;49692;55.052;73.310;2022-09-25T07:32:43;15.75;15.75;12.50
61873;PMS5003;49692;55.052;73.310;2022-09-25T07:35:13;22.25;18.25;14.25
61873;PMS5003;49692;55.052;73.310;2022-09-25T07:37:44;18.25;16.50;12.50
61873;PMS5003;49692;55.052;73.310;2022-09-25T07:40:10;22.50;21.00;13.50
61873;PMS5003;49692;55.052;73.310;2022-09-25T07:42:49;20.50;18.00;12.00
61873;PMS5003;49692;55.052;73.310;2022-09-25T07:45:19;15.25;12.50;9.75
61873;PMS5003;49692;55.052;73.310;2022-09-25T07:47:59;23.25;20.75;14.00
61873;PMS5003;49692;55.052;73.310;2022-09-25T07:50:28;16.00;15.75;12.50
61873;PMS5003;49692;55.052;73.310;2022-09-25T07:52:56;20.75;16.00;12.50
61873;PMS5003;49692;55.052;73.310;2022-09-25T07:55:24;17.25;16.75;9.75
61873;PMS5003;49692;55.052;73.310;2022-09-25T07:58:04;20.50;18.25;12.50
61873;PMS5003;49692;55.052;73.310;2022-09-25T08:00:45;26.00;21.50;12.00
61873;PMS5003;49692;55.052;73.310;2022-09-25T08:03:13;12.25;12.25;6.00
61873;PMS5003;49692;55.052;73.310;2022-09-25T08:05:42;16.25;14.25;10.50
61873;PMS5003;49692;55.052;73.310;2022-09-25T08:08:16;29.50;18.00;13.00
61873;PMS5003;49692;55.052;73.310;2022-09-25T08:10:45;18.00;14.00;11.50
61873;PMS5003;49692;55.052;73.310;2022-09-25T08:13:19;28.00;18.00;13.50
61873;PMS5003;49692;55.052;73.310;2022-09-25T08:15:56;19.50;16.00;10.75
61873;PMS5003;49692;55.052;73.310;2022-09-25T08:18:28;18.25;15.00;9.00
61873;PMS5003;49692;55.052;73.310;2022-09-25T08:20:59;19.25;14.75;12.00
61873;PMS5003;49692;55.052;73.310;2022-09-25T08:23:29;19.25;15.75;12.00
61873;PMS5003;49692;55.052;73.310;2022-09-25T08:26:00;25.50;18.00;12.75
61873;PMS5003;49692;55.052;73.310;2022-09-25T08:28:27;15.75;13.75;9.75
61873;PMS5003;49692;55.052;73.310;2022-09-25T08:30:57;15.00;12.25;8.50
61873;PMS5003;49692;55.052;73.310;2022-09-25T08:33:25;20.25;14.00;10.50
61873;PMS5003;49692;55.052;73.310;2022-09-25T08:35:55;15.50;9.50;7.00
61873;PMS5003;49692;55.052;73.310;2022-09-25T08:38:33;16.50;13.00;9.25
61873;PMS5003;49692;55.052;73.310;2022-09-25T08:41:04;17.25;16.50;12.75
61873;PMS5003;49692;55.052;73.310;2022-09-25T08:43:54;16.75;12.75;9.75
61873;PMS5003;49692;55.052;73.310;2022-09-25T08:46:39;14.50;14.50;10.00
61873;PMS5003;49692;55.052;73.310;2022-09-25T08:49:29;18.00;17.50;11.50
61873;PMS5003;49692;55.052;73.310;2022-09-25T08:52:04;13.25;12.00;10.25
61873;PMS5003;49692;55.052;73.310;2022-09-25T08:54:36;18.00;13.00;10.00
61873;PMS5003;49692;55.052;73.310;2022-09-25T08:59:42;20.75;17.00;11.50
61873;PMS5003;49692;55.052;73.310;2022-09-25T09:02:19;18.00;14.25;10.00
61873;PMS5003;49692;55.052;73.310;2022-09-25T09:04:53;16.50;15.25;9.75
61873;PMS5003;49692;55.052;73.310;2022-09-25T09:09:59;22.50;17.00;9.50
61873;PMS5003;49692;55.052;73.310;2022-09-25T09:12:50;12.25;12.00;6.00
61873;PMS5003;49692;55.052;73.310;2022-09-25T09:18:20;19.00;18.00;14.00
61873;PMS5003;49692;55.052;73.310;2022-09-25T09:20:59;25.50;22.75;16.00
61873;PMS5003;49692;55.052;73.310;2022-09-25T09:23:43;24.25;20.50;12.00
61873;PMS5003;49692;55.052;73.310;2022-09-25T09:26:15;21.50;19.25;13.25
61873;PMS5003;49692;55.052;73.310;2022-09-25T09:40:46;12.75;10.00;7.00
61873;PMS5003;49692;55.052;73.310;2022-09-25T09:46:37;8.50;8.50;6.00
61873;PMS5003;49692;55.052;73.310;2022-09-25T09:49:30;13.25;11.00;9.25
61873;PMS5003;49692;55.052;73.310;2022-09-25T09:52:19;22.25;15.50;10.00
61873;PMS5003;49692;55.052;73.310;2022-09-25T09:55:16;16.00;16.00;12.00
61873;PMS5003;49692;55.052;73.310;2022-09-25T09:57:56;15.75;13.00;10.00
61873;PMS5003;49692;55.052;73.310;2022-09-25T10:00:30;15.50;12.00;9.00
61873;PMS5003;49692;55.052;73.310;2022-09-25T10:03:04;14.50;12.00;9.50
61873;PMS5003;49692;55.052;73.310;2022-09-25T10:05:46;14.00;12.00;9.00
61873;PMS5003;49692;55.052;73.310;2022-09-25T10:08:18;10.25;9.00;7.00
61873;PMS5003;49692;55.052;73.310;2022-09-25T10:10:46;20.75;15.25;10.00
61873;PMS5003;49692;55.052;73.310;2022-09-25T10:13:19;17.50;12.75;10.00
61873;PMS5003;49692;55.052;73.310;2022-09-25T10:18:47;14.25;14.25;10.00
61873;PMS5003;49692;55.052;73.310;2022-09-25T10:21:47;17.50;17.50;11.50
61873;PMS5003;49692;55.052;73.310;2022-09-25T10:24:52;32.50;24.25;15.00
61873;PMS5003;49692;55.052;73.310;2022-09-25T10:32:43;10.00;6.50;3.00
61873;PMS5003;49692;55.052;73.310;2022-09-25T10:35:19;20.25;16.00;10.00
61873;PMS5003;49692;55.052;73.310;2022-09-25T10:38:00;17.00;15.00;11.00
61873;PMS5003;49692;55.052;73.310;2022-09-25T10:40:28;18.00;18.00;13.00
61873;PMS5003;49692;55.052;73.310;2022-09-25T10:43:12;21.75;19.50;12.75
61873;PMS5003;49692;55.052;73.310;2022-09-25T10:45:46;19.75;17.75;12.50
61873;PMS5003;49692;55.052;73.310;2022-09-25T10:51:17;18.00;16.50;11.00
61873;PMS5003;49692;55.052;73.310;2022-09-25T10:53:51;17.50;15.75;12.25
61873;PMS5003;49692;55.052;73.310;2022-09-25T10:56:35;21.25;21.25;16.00
61873;PMS5003;49692;55.052;73.310;2022-09-25T10:59:17;25.00;21.25;15.00
61873;PMS5003;49692;55.052;73.310;2022-09-25T11:01:50;22.00;17.75;11.75
61873;PMS5003;49692;55.052;73.310;2022-09-25T11:04:21;21.50;20.50;13.50
61873;PMS5003;49692;55.052;73.310;2022-09-25T11:07:11;18.50;17.50;12.25
61873;PMS5003;49692;55.052;73.310;2022-09-25T11:10:04;15.25;14.00;11.00
61873;PMS5003;49692;55.052;73.310;2022-09-25T11:12:31;24.50;19.25;13.00
61873;PMS5003;49692;55.052;73.310;2022-09-25T11:15:04;18.25;18.25;11.00
61873;PMS5003;49692;55.052;73.310;2022-09-25T11:17:41;20.75;17.00;9.25
61873;PMS5003;49692;55.052;73.310;2022-09-25T11:20:26;21.00;21.00;12.75
61873;PMS5003;49692;55.052;73.310;2022-09-25T11:23:00;28.00;24.25;18.00
61873;PMS5003;49692;55.052;73.310;2022-09-25T11:28:25;117.00;96.80;51.60
61873;PMS5003;49692;55.052;73.310;2022-09-25T11:36:51;34.25;30.50;19.25
61873;PMS5003;49692;55.052;73.310;2022-09-25T11:39:39;27.00;20.25;15.50
61873;PMS5003;49692;55.052;73.310;2022-09-25T11:42:42;23.25;19.75;12.25
61873;PMS5003;49692;55.052;73.310;2022-09-25T11:45:30;24.00;21.00;14.00
61873;PMS5003;49692;55.052;73.310;2022-09-25T11:51:05;33.25;31.50;22.00
61873;PMS5003;49692;55.052;73.310;2022-09-25T11:59:15;28.50;27.00;18.00
61873;PMS5003;49692;55.052;73.310;2022-09-25T12:02:10;27.25;25.75;17.50
61873;PMS5003;49692;55.052;73.310;2022-09-25T12:05:03;19.50;15.50;10.00
61873;PMS5003;49692;55.052;73.310;2022-09-25T12:08:08;30.00;23.00;15.00
61873;PMS5003;49692;55.052;73.310;2022-09-25T12:11:09;24.75;22.75;15.75
61873;PMS5003;49692;55.052;73.310;2022-09-25T12:16:45;23.75;19.75;11.75
61873;PMS5003;49692;55.052;73.310;2022-09-25T12:19:20;32.75;26.50;18.25
61873;PMS5003;49692;55.052;73.310;2022-09-25T12:24:51;27.00;19.50;15.00
61873;PMS5003;49692;55.052;73.310;2022-09-25T12:30:37;17.75;16.25;10.00
61873;PMS5003;49692;55.052;73.310;2022-09-25T12:36:22;21.50;19.50;14.50
61873;PMS5003;49692;55.052;73.310;2022-09-25T12:39:20;24.75;20.50;13.00
61873;PMS5003;49692;55.052;73.310;2022-09-25T12:42:06;16.00;15.25;12.25
61873;PMS5003;49692;55.052;73.310;2022-09-25T12:44:45;13.75;12.50;9.75
61873;PMS5003;49692;55.052;73.310;2022-09-25T12:47:58;19.75;18.50;13.25
61873;PMS5003;49692;55.052;73.310;2022-09-25T12:50:42;22.75;21.25;15.00
61873;PMS5003;49692;55.052;73.310;2022-09-25T12:53:35;27.75;27.50;19.75
61873;PMS5003;49692;55.052;73.310;2022-09-25T12:56:10;25.75;20.50;12.50
61873;PMS5003;49692;55.052;73.310;2022-09-25T12:58:44;28.00;24.75;14.00
61873;PMS5003;49692;55.052;73.310;2022-09-25T13:01:24;28.00;22.75;13.50
61873;PMS5003;49692;55.052;73.310;2022-09-25T13:09:41;21.25;18.50;12.50
61873;PMS5003;49692;55.052;73.310;2022-09-25T13:12:30;17.75;17.75;12.75
61873;PMS5003;49692;55.052;73.310;2022-09-25T13:15:05;23.25;21.25;15.25
61873;PMS5003;49692;55.052;73.310;2022-09-25T13:17:40;23.50;20.50;12.50
61873;PMS5003;49692;55.052;73.310;2022-09-25T13:22:57;25.25;19.00;13.00
61873;PMS5003;49692;55.052;73.310;2022-09-25T13:25:46;19.25;19.25;15.00
61873;PMS5003;49692;55.052;73.310;2022-09-25T13:28:23;18.50;16.50;11.25
61873;PMS5003;49692;55.052;73.310;2022-09-25T13:30:56;16.75;15.00;10.75
61873;PMS5003;49692;55.052;73.310;2022-09-25T13:33:50;11.00;10.50;9.75
61873;PMS5003;49692;55.052;73.310;2022-09-25T13:39:03;19.00;19.00;12.00
61873;PMS5003;49692;55.052;73.310;2022-09-25T13:42:00;27.50;21.50;13.00
61873;PMS5003;49692;55.052;73.310;2022-09-25T13:44:36;22.00;20.50;15.00
61873;PMS5003;49692;55.052;73.310;2022-09-25T13:55:41;18.75;15.75;10.00
61873;PMS5003;49692;55.052;73.310;2022-09-25T13:59:18;15.00;13.25;9.00
61873;PMS5003;49692;55.052;73.310;2022-09-25T14:01:33;13.50;13.50;9.00
61873;PMS5003;49692;55.052;73.310;2022-09-25T14:06:41;9.50;9.50;6.25
61873;PMS5003;49692;55.052;73.310;2022-09-25T14:09:16;7.50;6.00;4.00
61873;PMS5003;49692;55.052;73.310;2022-09-25T14:14:44;10.00;9.50;8.50
61873;PMS5003;49692;55.052;73.310;2022-09-25T14:17:27;9.75;7.00;5.00
61873;PMS5003;49692;55.052;73.310;2022-09-25T14:19:58;7.00;6.25;3.75
61873;PMS5003;49692;55.052;73.310;2022-09-25T14:22:37;9.75;7.00;6.00
61873;PMS5003;49692;55.052;73.310;2022-09-25T14:28:20;15.00;10.50;8.50
61873;PMS5003;49692;55.052;73.310;2022-09-25T14:31:38;4.50;3.25;3.00
61873;PMS5003;49692;55.052;73.310;2022-09-25T14:47:14;7.00;4.50;4.00
61873;PMS5003;49692;55.052;73.310;2022-09-25T14:49:57;6.00;6.00;4.50
61873;PMS5003;49692;55.052;73.310;2022-09-25T14:52:28;4.75;3.50;1.25
61873;PMS5003;49692;55.052;73.310;2022-09-25T14:55:00;5.75;5.00;4.00
61873;PMS5003;49692;55.052;73.310;2022-09-25T14:57:31;6.25;6.25;4.00
61873;PMS5003;49692;55.052;73.310;2022-09-25T15:00:05;3.50;3.50;2.00
61873;PMS5003;49692;55.052;73.310;2022-09-25T15:02:44;5.50;5.00;2.75
61873;PMS5003;49692;55.052;73.310;2022-09-25T15:07:47;3.00;3.00;3.00
61873;PMS5003;49692;55.052;73.310;2022-09-25T15:10:27;3.00;3.00;3.00
61873;PMS5003;49692;55.052;73.310;2022-09-25T15:15:53;3.00;3.00;1.00
61873;PMS5003;49692;55.052;73.310;2022-09-25T15:19:15;3.50;3.50;3.00
61873;PMS5003;49692;55.052;73.310;2022-09-25T15:21:51;2.50;2.50;1.00
61873;PMS5003;49692;55.052;73.310;2022-09-25T15:24:30;3.00;3.00;3.00
61873;PMS5003;49692;55.052;73.310;2022-09-25T15:27:02;3.50;3.00;1.00
61873;PMS5003;49692;55.052;73.310;2022-09-25T15:29:34;4.00;4.00;3.00
61873;PMS5003;49692;55.052;73.310;2022-09-25T15:32:18;3.50;3.50;3.00
61873;PMS5003;49692;55.052;73.310;2022-09-25T15:37:05;5.00;2.00;1.00
61873;PMS5003;49692;55.052;73.310;2022-09-25T15:46:52;4.00;2.00;1.00
61873;PMS5003;49692;55.052;73.310;2022-09-25T15:49:37;1.00;1.00;1.00
61873;PMS5003;49692;55.052;73.310;2022-09-25T15:52:29;1.50;1.50;1.50
61873;PMS5003;49692;55.052;73.310;2022-09-25T15:55:00;0.75;0.75;0.75
61873;PMS5003;49692;55.052;73.310;2022-09-25T15:57:42;6.75;5.50;4.00
61873;PMS5003;49692;55.052;73.310;2022-09-25T16:00:19;5.50;2.50;1.00
61873;PMS5003;49692;55.052;73.310;2022-09-25T16:06:14;5.00;3.00;1.00
61873;PMS5003;49692;55.052;73.310;2022-09-25T16:08:43;2.50;2.50;0.25
61873;PMS5003;49692;55.052;73.310;2022-09-25T16:11:22;4.50;3.50;1.00
61873;PMS5003;49692;55.052;73.310;2022-09-25T16:13:53;3.25;3.25;3.00
61873;PMS5003;49692;55.052;73.310;2022-09-25T16:16:46;0.75;0.75;0.00
61873;PMS5003;49692;55.052;73.310;2022-09-25T16:21:59;3.75;3.75;2.00
61873;PMS5003;49692;55.052;73.310;2022-09-25T16:24:39;7.50;5.50;3.50
61873;PMS5003;49692;55.052;73.310;2022-09-25T16:27:24;1.75;1.00;1.00
61873;PMS5003;49692;55.052;73.310;2022-09-25T16:29:56;2.00;2.00;2.00
61873;PMS5003;49692;55.052;73.310;2022-09-25T16:32:38;3.50;3.50;3.50
61873;PMS5003;49692;55.052;73.310;2022-09-25T16:35:21;1.00;1.00;1.00
61873;PMS5003;49692;55.052;73.310;2022-09-25T16:38:00;5.50;4.00;3.00
61873;PMS5003;49692;55.052;73.310;2022-09-25T16:40:29;4.00;4.00;3.25
61873;PMS5003;49692;55.052;73.310;2022-09-25T16:43:01;8.00;3.00;1.00
61873;PMS5003;49692;55.052;73.310;2022-09-25T16:45:32;3.00;3.00;2.50
61873;PMS5003;49692;55.052;73.310;2022-09-25T16:51:10;3.00;2.00;1.50
61873;PMS5003;49692;55.052;73.310;2022-09-25T16:53:50;3.50;3.50;1.00
61873;PMS5003;49692;55.052;73.310;2022-09-25T16:56:31;1.75;1.50;1.00
61873;PMS5003;49692;55.052;73.310;2022-09-25T16:59:21;3.25;3.00;1.00
61873;PMS5003;49692;55.052;73.310;2022-09-25T17:02:03;6.00;4.00;2.75
61873;PMS5003;49692;55.052;73.310;2022-09-25T17:04:46;4.00;4.00;2.00